Time;durP1;ratioP1;P1;durP2;ratioP2;P2;SDS_P1;SDS_P2;PMS_P1;PMS_P2;Temp;Humidity;BMP_temperature;BMP_pressure;BME280_temperature;BME280_humidity;BME280_pressure;Samples;Min_cycle;Max_cycle;Signal;HPM_P1;HPM_P2
2021/11/26 00:02:26;;;;;;;49.27;27.67;;;1.60;99.90;;;;;;6191259;23;20396;-94
2021/11/26 00:05:00;;;;;;;48.70;25.80;;;1.60;99.90;;;;;;6193323;23;20400;-95
2021/11/26 00:07:26;;;;;;;51.10;24.50;;;1.50;99.90;;;;;;6187375;23;20435;-96
2021/11/26 00:09:52;;;;;;;50.47;26.00;;;1.50;99.90;;;;;;6189723;23;20440;-95
2021/11/26 00:12:20;;;;;;;46.20;26.13;;;1.60;99.90;;;;;;6187268;23;20397;-96
2021/11/26 00:17:35;;;;;;;43.80;24.17;;;1.60;99.90;;;;;;6234082;22;20456;-95
2021/11/26 00:20:26;;;;;;;;;;;;;;;;;;;;;
2021/11/26 00:22:58;;;;;;;47.10;25.73;;;1.60;99.90;;;;;;6268943;23;20368;-95
2021/11/26 00:25:45;;;;;;;;;;;;;;;;;;;;;
2021/11/26 00:28:34;;;;;;;49.07;24.60;;;1.70;99.90;;;;;;6268495;23;20385;-92
2021/11/26 00:31:17;;;;;;;;;;;;;;;;;;;;;
2021/11/26 00:34:04;;;;;;;49.30;24.70;;;1.60;99.90;;;;;;6266555;23;20384;-93
2021/11/26 00:36:43;;;;;;;45.33;24.00;;;1.60;99.90;;;;;;6241306;23;20455;-96
2021/11/26 00:39:15;;;;;;;43.33;23.07;;;1.60;99.90;;;;;;6211526;23;20452;-94
2021/11/26 00:42:02;;;;;;;44.60;23.50;;;1.60;99.90;;;;;;6231275;23;20370;-95
2021/11/26 00:45:11;;;;;;;46.50;23.77;;;1.60;99.90;;;;;;6233376;23;20395;-95
2021/11/26 00:50:26;;;;;;;42.63;22.90;;;1.60;99.90;;;;;;6222243;23;20448;-95
2021/11/26 00:52:53;;;;;;;41.07;24.20;;;1.60;99.90;;;;;;6221639;23;20899;-95
2021/11/26 00:55:18;;;;;;;41.30;22.83;;;1.60;99.90;;;;;;6209406;23;20401;-95
2021/11/26 00:57:44;;;;;;;42.00;22.33;;;1.60;99.90;;;;;;6205061;23;20502;-95
2021/11/26 01:00:13;;;;;;;44.40;24.03;;;1.60;99.90;;;;;;6205224;23;20192;-95
2021/11/26 01:02:39;;;;;;;47.33;23.87;;;1.60;99.90;;;;;;6205909;23;20165;-95
2021/11/26 01:05:06;;;;;;;45.13;23.00;;;1.50;99.90;;;;;;6206372;23;20425;-95
2021/11/26 01:07:32;;;;;;;47.43;23.00;;;1.50;99.90;;;;;;6205737;23;20604;-95
2021/11/26 01:13:20;;;;;;;41.20;22.17;;;1.50;99.90;;;;;;6232345;23;20380;-96
2021/11/26 01:15:46;;;;;;;39.30;22.10;;;1.60;99.90;;;;;;6227212;23;20389;-92
2021/11/26 01:18:13;;;;;;;38.37;21.40;;;1.70;99.90;;;;;;6229004;23;20398;-96
2021/11/26 01:20:39;;;;;;;42.43;23.20;;;1.80;99.90;;;;;;6229014;23;20388;-96
2021/11/26 01:23:06;;;;;;;43.77;22.97;;;1.80;99.90;;;;;;6228248;23;20404;-96
2021/11/26 01:25:33;;;;;;;42.83;23.43;;;1.70;99.90;;;;;;6229229;23;20386;-96
2021/11/26 01:28:02;;;;;;;47.97;24.43;;;1.60;99.90;;;;;;6227896;23;20493;-96
2021/11/26 01:30:51;;;;;;;46.57;23.00;;;1.60;99.90;;;;;;6228654;23;20438;-96
2021/11/26 01:33:42;;;;;;;42.53;22.53;;;1.60;99.90;;;;;;6229489;23;20461;-96
2021/11/26 01:36:20;;;;;;;47.80;24.77;;;1.70;99.90;;;;;;6227922;23;20380;-96
2021/11/26 01:39:00;;;;;;;46.00;23.47;;;1.60;99.90;;;;;;6202299;23;20405;-96
2021/11/26 01:41:41;;;;;;;44.40;22.17;;;1.60;99.90;;;;;;6230636;23;20401;-96
2021/11/26 01:44:11;;;;;;;47.77;23.83;;;1.50;99.90;;;;;;6203432;23;20394;-96
2021/11/26 01:47:19;;;;;;;43.53;24.30;;;1.50;99.90;;;;;;6239055;23;20423;-96
2021/11/26 01:50:03;;;;;;;40.03;22.60;;;1.50;99.90;;;;;;6231529;23;20449;-96
2021/11/26 01:52:48;;;;;;;47.60;22.90;;;1.60;99.90;;;;;;6222328;23;20385;-96
2021/11/26 01:55:32;;;;;;;44.77;22.90;;;1.60;99.90;;;;;;6189507;23;20399;-96
2021/11/26 01:58:15;;;;;;;43.33;24.00;;;1.60;99.90;;;;;;6188606;23;20405;-96
2021/11/26 02:00:43;;;;;;;46.10;23.83;;;1.60;99.90;;;;;;6212145;23;20404;-95
2021/11/26 02:03:09;;;;;;;48.63;23.27;;;1.50;99.90;;;;;;6209891;23;20404;-94
2021/11/26 02:05:35;;;;;;;45.73;24.23;;;1.50;99.90;;;;;;6208528;23;20397;-94
2021/11/26 02:08:01;;;;;;;52.17;26.40;;;1.50;99.90;;;;;;6209823;23;20449;-94
2021/11/26 02:10:28;;;;;;;41.90;21.60;;;1.60;99.90;;;;;;6209518;23;20191;-94
2021/11/26 02:12:54;;;;;;;42.20;23.80;;;1.60;99.90;;;;;;6209229;23;20170;-93
2021/11/26 02:15:23;;;;;;;47.00;24.60;;;1.80;99.90;;;;;;6212212;23;20473;-94
2021/11/26 02:17:50;;;;;;;45.27;24.50;;;1.70;99.90;;;;;;6209588;23;20387;-94
2021/11/26 02:20:22;;;;;;;47.17;25.40;;;1.70;99.90;;;;;;6209565;23;20410;-95
2021/11/26 02:22:48;;;;;;;51.60;26.10;;;1.70;99.90;;;;;;6211040;23;20840;-95
2021/11/26 02:25:23;;;;;;;44.97;24.10;;;1.60;99.90;;;;;;6213588;23;20405;-96
2021/11/26 02:27:52;;;;;;;49.57;25.17;;;1.70;99.90;;;;;;6222006;23;20395;-95
2021/11/26 02:30:19;;;;;;;46.27;23.87;;;1.60;99.90;;;;;;6208663;23;21494;-95
2021/11/26 02:32:50;;;;;;;45.30;24.20;;;1.60;99.90;;;;;;6204995;23;20517;-95
2021/11/26 02:35:21;;;;;;;44.03;23.53;;;1.60;99.90;;;;;;6182826;23;20431;-95
2021/11/26 02:37:47;;;;;;;53.50;27.07;;;1.60;99.90;;;;;;6197404;23;20382;-95
2021/11/26 02:40:17;;;;;;;49.60;23.53;;;1.60;99.90;;;;;;6235172;23;20999;-96
2021/11/26 02:45:20;;;;;;;46.83;24.70;;;1.70;99.90;;;;;;6225943;23;20787;-95
2021/11/26 02:47:47;;;;;;;49.90;25.70;;;1.60;99.90;;;;;;6209309;23;20397;-95
2021/11/26 02:52:51;;;;;;;43.50;22.77;;;1.50;99.90;;;;;;6220712;23;20383;-95
2021/11/26 02:55:20;;;;;;;47.00;24.30;;;1.60;99.90;;;;;;6231576;23;20409;-95
2021/11/26 02:57:47;;;;;;;51.90;26.17;;;1.60;99.90;;;;;;6237761;23;20389;-95
2021/11/26 03:00:16;;;;;;;44.43;24.13;;;1.60;99.90;;;;;;6233864;23;20394;-96
2021/11/26 03:02:42;;;;;;;45.13;23.80;;;1.60;99.90;;;;;;6230826;23;20408;-96
2021/11/26 03:05:08;;;;;;;45.20;23.87;;;1.60;99.90;;;;;;6234474;23;20387;-96
2021/11/26 03:07:48;;;;;;;45.23;23.97;;;1.60;99.90;;;;;;6236588;23;20405;-96
2021/11/26 03:10:36;;;;;;;50.40;25.53;;;1.60;99.90;;;;;;6234079;23;20434;-93
2021/11/26 03:13:06;;;;;;;50.50;24.57;;;1.70;99.90;;;;;;6235044;23;20403;-96
2021/11/26 03:15:35;;;;;;;43.50;23.10;;;1.70;99.90;;;;;;6233439;23;20379;-94
2021/11/26 03:18:02;;;;;;;48.77;28.00;;;1.70;99.90;;;;;;6234599;23;20406;-96
2021/11/26 03:20:28;;;;;;;49.57;25.93;;;1.70;99.90;;;;;;6226979;23;20391;-96
2021/11/26 03:22:55;;;;;;;50.27;27.20;;;1.60;99.90;;;;;;6214293;23;20919;-96
2021/11/26 03:25:36;;;;;;;53.80;28.13;;;1.50;99.90;;;;;;6215641;23;20398;-96
2021/11/26 03:28:05;;;;;;;54.07;27.53;;;1.50;99.90;;;;;;6197271;23;20461;-96
2021/11/26 03:30:30;;;;;;;50.37;25.90;;;1.50;99.90;;;;;;6218264;23;20448;-96
2021/11/26 03:32:56;;;;;;;49.47;26.53;;;1.50;99.90;;;;;;6214934;23;20401;-95
2021/11/26 03:35:23;;;;;;;60.53;32.20;;;1.50;99.90;;;;;;6214369;23;20510;-96
2021/11/26 03:37:51;;;;;;;60.43;30.50;;;1.50;99.90;;;;;;6222080;23;20393;-95
2021/11/26 03:40:25;;;;;;;52.87;27.80;;;1.50;99.90;;;;;;6200678;23;20485;-96
2021/11/26 03:42:54;;;;;;;54.40;28.00;;;1.50;99.90;;;;;;6199482;23;20402;-93
2021/11/26 03:45:23;;;;;;;54.37;27.93;;;1.40;99.90;;;;;;6225420;23;21428;-95
2021/11/26 03:47:52;;;;;;;54.50;26.30;;;1.50;99.90;;;;;;6222545;23;20408;-94
2021/11/26 03:50:19;;;;;;;53.90;25.37;;;1.50;99.90;;;;;;6224028;23;20589;-96
2021/11/26 03:52:50;;;;;;;49.60;25.83;;;1.50;99.90;;;;;;6226322;23;20397;-96
2021/11/26 03:55:20;;;;;;;54.33;27.43;;;1.50;99.90;;;;;;6198306;23;20404;-95
2021/11/26 03:57:55;;;;;;;54.10;27.67;;;1.50;99.90;;;;;;6221229;23;20772;-96
2021/11/26 04:00:36;;;;;;;47.80;25.40;;;1.50;99.90;;;;;;6226970;23;20389;-96
2021/11/26 04:03:13;;;;;;;46.97;24.17;;;1.50;99.90;;;;;;6228893;23;20398;-95
2021/11/26 04:05:44;;;;;;;59.00;27.33;;;1.60;99.90;;;;;;6232519;23;20396;-96
2021/11/26 04:08:10;;;;;;;44.27;25.70;;;1.60;99.90;;;;;;6233182;23;20393;-94
2021/11/26 04:10:36;;;;;;;50.83;25.77;;;1.70;99.90;;;;;;6216390;23;20579;-95
2021/11/26 04:13:03;;;;;;;46.93;27.00;;;1.70;99.90;;;;;;6207316;23;20158;-94
2021/11/26 04:15:32;;;;;;;49.87;26.03;;;1.60;99.90;;;;;;6224771;23;20869;-95
2021/11/26 04:18:09;;;;;;;50.30;24.33;;;1.60;99.90;;;;;;6227901;23;20392;-95
2021/11/26 04:20:43;;;;;;;47.40;23.70;;;1.70;99.90;;;;;;6229281;23;20425;-95
2021/11/26 04:23:10;;;;;;;48.60;24.57;;;1.80;99.90;;;;;;6216754;23;20447;-94
2021/11/26 04:25:36;;;;;;;47.83;23.17;;;1.80;99.90;;;;;;6206997;23;20400;-96
2021/11/26 04:28:02;;;;;;;48.23;25.57;;;1.80;99.90;;;;;;6207418;23;20408;-94
2021/11/26 04:30:29;;;;;;;48.23;24.20;;;1.80;99.90;;;;;;6206706;23;20442;-96
2021/11/26 04:32:55;;;;;;;46.97;24.27;;;1.70;99.90;;;;;;6205684;23;20167;-95
2021/11/26 04:35:21;;;;;;;48.33;24.13;;;1.70;99.90;;;;;;6236504;23;20399;-96
2021/11/26 04:37:57;;;;;;;44.30;23.77;;;1.60;99.90;;;;;;6239587;23;20379;-95
2021/11/26 04:40:26;;;;;;;44.80;24.10;;;1.60;99.90;;;;;;6232122;23;20412;-94
2021/11/26 04:42:52;;;;;;;45.83;24.07;;;1.60;99.90;;;;;;6216995;23;20422;-95
2021/11/26 04:45:18;;;;;;;53.20;25.00;;;1.60;99.90;;;;;;6239706;23;20387;-95
2021/11/26 04:47:52;;;;;;;48.17;24.17;;;1.70;99.90;;;;;;6240736;23;20148;-95
2021/11/26 04:50:18;;;;;;;48.70;26.50;;;1.70;99.90;;;;;;6238672;23;20472;-96
2021/11/26 04:52:43;;;;;;;44.47;23.80;;;1.80;99.90;;;;;;6237295;23;20398;-94
2021/11/26 04:55:11;;;;;;;52.10;25.90;;;1.80;99.90;;;;;;6230635;23;20404;-95
2021/11/26 04:57:40;;;;;;;48.53;26.47;;;1.70;99.90;;;;;;6212505;23;20168;-95
2021/11/26 05:00:08;;;;;;;43.43;22.70;;;1.60;99.90;;;;;;6213436;23;20408;-95
2021/11/26 05:02:35;;;;;;;43.20;24.00;;;1.50;99.90;;;;;;6227316;23;20429;-96
2021/11/26 05:05:38;;;;;;;49.97;25.27;;;1.60;99.90;;;;;;6209149;23;20464;-94
2021/11/26 05:08:06;;;;;;;50.23;24.90;;;1.50;99.90;;;;;;6231155;23;20884;-95
2021/11/26 05:10:42;;;;;;;46.27;23.70;;;1.50;99.90;;;;;;6231832;23;20469;-96
2021/11/26 05:13:12;;;;;;;46.80;24.60;;;1.50;99.90;;;;;;6230895;23;20398;-94
2021/11/26 05:15:57;;;;;;;45.07;23.67;;;1.50;99.90;;;;;;6206630;23;20416;-94
2021/11/26 05:18:26;;;;;;;48.97;24.83;;;1.50;99.90;;;;;;6204744;23;20431;-95
2021/11/26 05:20:54;;;;;;;48.23;23.10;;;1.50;99.90;;;;;;6225999;23;20404;-96
2021/11/26 05:23:31;;;;;;;44.40;23.03;;;1.50;99.90;;;;;;6225595;23;20399;-95
2021/11/26 05:26:32;;;;;;;50.93;25.80;;;1.50;99.90;;;;;;6228665;23;20430;-96
2021/11/26 05:29:04;;;;;;;47.23;23.47;;;1.60;99.90;;;;;;6199647;23;20409;-96
2021/11/26 05:31:35;;;;;;;54.53;24.63;;;1.60;99.90;;;;;;6223911;23;20391;-96
2021/11/26 05:34:09;;;;;;;46.87;23.60;;;1.60;99.90;;;;;;6228120;23;20395;-93
2021/11/26 05:36:40;;;;;;;49.17;25.00;;;1.60;99.90;;;;;;6205496;23;20637;-96
2021/11/26 05:39:24;;;;;;;50.33;23.73;;;1.60;99.90;;;;;;6223646;23;20419;-95
2021/11/26 05:41:53;;;;;;;46.27;22.70;;;1.60;99.90;;;;;;6216881;23;20395;-95
2021/11/26 05:44:19;;;;;;;50.47;25.40;;;1.60;99.90;;;;;;6219847;23;20395;-92
2021/11/26 05:46:46;;;;;;;51.17;25.40;;;1.50;99.90;;;;;;6218200;23;20466;-95
2021/11/26 05:49:12;;;;;;;48.50;25.27;;;1.50;99.90;;;;;;6214025;23;20493;-95
2021/11/26 05:51:38;;;;;;;48.93;25.80;;;1.40;99.90;;;;;;6224077;23;20475;-96
2021/11/26 05:54:04;;;;;;;51.73;25.53;;;1.40;99.90;;;;;;6224293;23;20160;-94
2021/11/26 05:56:40;;;;;;;53.47;24.63;;;1.40;99.90;;;;;;6228664;23;20455;-96
2021/11/26 05:59:29;;;;;;;53.07;25.10;;;1.40;99.90;;;;;;6187937;23;20444;-95
2021/11/26 06:01:58;;;;;;;54.57;25.20;;;1.40;99.90;;;;;;6211873;23;20480;-96
2021/11/26 06:04:45;;;;;;;47.97;24.60;;;1.40;99.90;;;;;;6214979;23;20385;-96
2021/11/26 06:07:40;;;;;;;48.23;24.77;;;1.30;99.90;;;;;;6208044;23;20410;-96
2021/11/26 06:10:12;;;;;;;49.57;24.00;;;1.40;99.90;;;;;;6209372;23;20449;-96
2021/11/26 06:12:50;;;;;;;45.60;24.20;;;1.40;99.90;;;;;;6237399;23;20383;-95
2021/11/26 06:15:18;;;;;;;53.80;26.40;;;1.30;99.90;;;;;;6237050;23;20410;-96
2021/11/26 06:21:19;;;;;;;63.73;27.40;;;1.30;99.90;;;;;;6239876;23;20474;-96
2021/11/26 06:23:45;;;;;;;57.33;25.87;;;1.30;99.90;;;;;;6214939;23;20731;-91
2021/11/26 06:26:11;;;;;;;54.33;26.77;;;1.30;99.90;;;;;;6205053;23;20394;-91
2021/11/26 06:28:58;;;;;;;51.47;24.90;;;1.30;99.90;;;;;;6207919;23;20160;-89
2021/11/26 06:31:24;;;;;;;61.00;26.90;;;1.20;99.90;;;;;;6206234;23;20164;-90
2021/11/26 06:33:50;;;;;;;56.00;26.00;;;1.20;99.90;;;;;;6207325;23;20501;-91
2021/11/26 06:36:16;;;;;;;70.20;28.27;;;1.20;99.90;;;;;;6209243;23;20430;-91
2021/11/26 06:38:53;;;;;;;60.57;28.37;;;1.20;99.90;;;;;;6207394;23;20502;-93
2021/11/26 06:41:18;;;;;;;51.23;26.13;;;1.20;99.90;;;;;;6206968;23;20414;-90
2021/11/26 06:43:44;;;;;;;57.13;27.60;;;1.30;99.90;;;;;;6205093;23;20167;-90
2021/11/26 06:46:10;;;;;;;64.47;29.23;;;1.20;99.90;;;;;;6205216;23;20210;-91
2021/11/26 06:48:36;;;;;;;68.17;29.30;;;1.20;99.90;;;;;;6206350;23;20603;-91
2021/11/26 06:51:01;;;;;;;62.70;28.90;;;1.20;99.90;;;;;;6207492;23;20174;-91
2021/11/26 06:53:27;;;;;;;60.00;24.93;;;1.30;99.90;;;;;;6208090;23;20790;-91
2021/11/26 06:55:53;;;;;;;70.40;28.67;;;1.30;99.90;;;;;;6206566;23;20175;-91
2021/11/26 06:58:18;;;;;;;58.37;28.40;;;1.30;99.90;;;;;;6206525;23;20174;-91
2021/11/26 07:00:44;;;;;;;59.27;28.53;;;1.40;99.90;;;;;;6206335;23;20252;-91
2021/11/26 07:03:10;;;;;;;56.67;27.47;;;1.50;99.90;;;;;;6207216;23;20165;-90
2021/11/26 07:05:35;;;;;;;57.80;27.10;;;1.50;99.90;;;;;;6205910;23;20239;-91
2021/11/26 07:08:01;;;;;;;63.93;27.37;;;1.50;99.90;;;;;;6206528;23;20465;-90
2021/11/26 07:10:27;;;;;;;60.97;28.67;;;1.50;99.90;;;;;;6205547;23;20193;-91
2021/11/26 07:12:52;;;;;;;52.57;26.33;;;1.50;99.90;;;;;;6207309;23;20468;-91
2021/11/26 07:15:18;;;;;;;65.83;30.83;;;1.60;99.90;;;;;;6181557;23;20170;-90
2021/11/26 07:17:44;;;;;;;58.93;27.00;;;1.60;99.90;;;;;;6206589;23;20180;-90
2021/11/26 07:20:11;;;;;;;55.60;26.47;;;1.60;99.90;;;;;;6205603;23;20935;-91
2021/11/26 07:22:37;;;;;;;57.57;27.97;;;1.70;99.90;;;;;;6206510;23;20218;-91
2021/11/26 07:25:05;;;;;;;55.13;27.67;;;1.70;99.90;;;;;;6206835;23;20401;-91
2021/11/26 07:27:38;;;;;;;62.00;27.87;;;1.60;99.90;;;;;;6203793;23;20505;-91
2021/11/26 07:30:06;;;;;;;58.17;27.13;;;1.50;99.90;;;;;;6206604;23;20849;-91
2021/11/26 07:32:32;;;;;;;62.40;27.00;;;1.50;99.90;;;;;;6205369;23;20439;-91
2021/11/26 07:34:58;;;;;;;58.27;27.47;;;1.60;99.90;;;;;;6205551;23;20911;-91
2021/11/26 07:37:25;;;;;;;63.27;27.67;;;1.60;99.90;;;;;;6206617;23;20400;-90
2021/11/26 07:39:51;;;;;;;62.90;29.03;;;1.60;99.90;;;;;;6206347;23;20254;-89
2021/11/26 07:42:17;;;;;;;58.53;28.20;;;1.60;99.90;;;;;;6206305;23;20462;-89
2021/11/26 07:44:43;;;;;;;60.80;28.83;;;1.50;99.90;;;;;;6204123;23;20407;-89
2021/11/26 07:47:11;;;;;;;60.83;29.97;;;1.50;99.90;;;;;;6212477;23;20392;-90
2021/11/26 07:49:37;;;;;;;63.03;28.77;;;1.50;99.90;;;;;;6208439;23;20191;-89
2021/11/26 07:52:04;;;;;;;60.83;27.47;;;1.50;99.90;;;;;;6206118;23;20468;-90
2021/11/26 07:54:30;;;;;;;62.53;28.97;;;1.50;99.90;;;;;;6181102;23;20390;-89
2021/11/26 07:56:58;;;;;;;60.80;26.60;;;1.50;99.90;;;;;;6200789;23;20490;-90
2021/11/26 07:59:26;;;;;;;64.43;29.53;;;1.50;99.90;;;;;;6176096;23;20499;-88
2021/11/26 08:01:52;;;;;;;59.33;27.03;;;1.40;99.90;;;;;;6201978;23;20395;-90
2021/11/26 08:04:18;;;;;;;61.47;27.20;;;1.50;99.90;;;;;;6207626;23;20383;-91
2021/11/26 08:06:49;;;;;;;62.57;26.30;;;1.40;99.90;;;;;;6209681;23;20533;-92
2021/11/26 08:09:20;;;;;;;71.50;28.80;;;1.40;99.90;;;;;;6182765;23;20442;-90
2021/11/26 08:11:47;;;;;;;63.50;26.77;;;1.40;99.90;;;;;;6207389;23;20777;-90
2021/11/26 08:14:14;;;;;;;61.53;25.80;;;1.40;99.90;;;;;;6205349;23;20391;-91
2021/11/26 08:16:40;;;;;;;54.20;24.43;;;1.40;99.90;;;;;;6204814;23;20482;-91
2021/11/26 08:19:08;;;;;;;65.03;29.20;;;1.30;99.90;;;;;;6204580;23;20406;-92
2021/11/26 08:21:34;;;;;;;70.83;29.47;;;1.30;99.90;;;;;;6208192;23;20388;-91
2021/11/26 08:24:01;;;;;;;72.10;29.63;;;1.30;99.90;;;;;;6207656;23;20885;-91
2021/11/26 08:26:35;;;;;;;67.57;28.07;;;1.30;99.90;;;;;;6207788;23;20840;-92
2021/11/26 08:29:03;;;;;;;83.40;29.23;;;1.30;99.90;;;;;;6208018;23;20430;-91
2021/11/26 08:31:33;;;;;;;67.23;28.53;;;1.40;99.90;;;;;;6208110;23;20408;-93
2021/11/26 08:34:00;;;;;;;70.97;29.50;;;1.40;99.90;;;;;;6207842;23;20387;-92
2021/11/26 08:36:29;;;;;;;78.70;30.00;;;1.50;99.90;;;;;;6206434;23;20482;-91
2021/11/26 08:38:56;;;;;;;69.57;30.93;;;1.50;99.90;;;;;;6206025;23;21338;-92
2021/11/26 08:41:23;;;;;;;82.30;29.77;;;1.40;99.90;;;;;;6207270;23;20599;-92
2021/11/26 08:43:49;;;;;;;69.03;29.47;;;1.40;99.90;;;;;;6205971;23;20486;-91
2021/11/26 08:46:15;;;;;;;65.47;29.07;;;1.40;99.90;;;;;;6182112;23;20395;-91
2021/11/26 08:48:41;;;;;;;71.30;31.67;;;1.40;99.90;;;;;;6206618;23;20498;-90
2021/11/26 08:51:08;;;;;;;59.90;27.03;;;1.40;99.90;;;;;;6206553;23;20453;-92
2021/11/26 08:53:37;;;;;;;57.50;28.10;;;1.50;99.90;;;;;;6208640;23;20405;-94
2021/11/26 08:56:04;;;;;;;63.10;28.07;;;1.50;99.90;;;;;;6188658;23;20411;-94
2021/11/26 08:58:30;;;;;;;71.80;28.27;;;1.50;99.90;;;;;;6206697;23;20391;-89
2021/11/26 09:00:56;;;;;;;66.73;27.87;;;1.50;99.90;;;;;;6205820;23;20391;-91
2021/11/26 09:03:22;;;;;;;64.33;29.07;;;1.50;99.90;;;;;;6209250;23;20429;-91
2021/11/26 09:05:47;;;;;;;59.97;26.70;;;1.60;99.90;;;;;;6209926;23;20165;-93
2021/11/26 09:08:16;;;;;;;61.47;27.23;;;1.70;99.90;;;;;;6209615;23;20392;-93
2021/11/26 09:10:45;;;;;;;55.90;27.10;;;1.80;99.90;;;;;;6208650;23;20191;-92
2021/11/26 09:13:12;;;;;;;53.97;26.43;;;1.70;99.90;;;;;;6209024;23;20450;-92
2021/11/26 09:18:18;;;;;;;59.40;27.17;;;1.70;99.90;;;;;;6215945;23;20389;-88
2021/11/26 09:20:49;;;;;;;54.40;25.50;;;1.60;99.90;;;;;;6203876;23;20472;-89
2021/11/26 09:23:19;;;;;;;59.50;27.57;;;1.70;99.90;;;;;;6210352;23;20391;-93
2021/11/26 09:25:47;;;;;;;56.13;25.27;;;1.90;99.90;;;;;;6209036;23;20394;-92
2021/11/26 09:28:18;;;;;;;65.53;26.53;;;1.90;99.90;;;;;;6208299;23;20428;-91
2021/11/26 09:30:48;;;;;;;57.97;26.57;;;1.90;99.90;;;;;;6207973;23;20553;-92
2021/11/26 09:33:17;;;;;;;56.17;25.67;;;2.00;99.90;;;;;;6206153;23;20394;-94
2021/11/26 09:35:48;;;;;;;60.90;27.83;;;2.10;99.90;;;;;;6209005;23;20413;-93
2021/11/26 09:38:13;;;;;;;53.07;25.47;;;2.20;99.90;;;;;;6182511;23;20400;-92
2021/11/26 09:40:44;;;;;;;58.93;27.53;;;2.40;99.90;;;;;;6206714;23;20396;-91
2021/11/26 09:43:10;;;;;;;50.73;25.33;;;2.40;99.90;;;;;;6208611;23;20460;-92
2021/11/26 09:45:37;;;;;;;55.47;25.27;;;2.30;99.90;;;;;;6208095;23;20383;-92
2021/11/26 09:48:03;;;;;;;55.43;24.70;;;2.20;99.90;;;;;;6207706;23;20407;-91
2021/11/26 09:50:32;;;;;;;51.90;25.57;;;2.30;99.90;;;;;;6201437;23;20446;-90
2021/11/26 09:53:20;;;;;;;59.20;24.80;;;2.30;99.90;;;;;;6200372;23;20589;-91
2021/11/26 09:56:16;;;;;;;50.60;25.20;;;2.50;99.90;;;;;;6199675;23;20475;-85
2021/11/26 09:58:43;;;;;;;52.00;24.50;;;2.40;99.90;;;;;;6175151;23;20405;-92
2021/11/26 10:01:15;;;;;;;54.77;25.30;;;2.60;99.90;;;;;;6199734;23;20496;-90
2021/11/26 10:03:48;;;;;;;58.90;27.20;;;2.60;99.90;;;;;;6200187;23;20394;-91
2021/11/26 10:06:24;;;;;;;52.50;25.40;;;2.60;99.90;;;;;;6199586;23;20429;-91
2021/11/26 10:09:17;;;;;;;45.40;25.10;;;2.70;99.90;;;;;;6198331;23;20812;-91
2021/11/26 10:12:03;;;;;;;44.70;21.00;;;2.70;99.90;;;;;;6173350;23;20407;-91
2021/11/26 10:14:41;;;;;;;47.90;22.80;;;2.70;99.90;;;;;;6200357;23;20845;-91
2021/11/26 10:17:23;;;;;;;48.67;24.93;;;2.60;99.90;;;;;;6198230;23;20427;-91
2021/11/26 10:19:58;;;;;;;53.40;24.47;;;2.60;99.90;;;;;;6199243;23;20735;-92
2021/11/26 10:22:25;;;;;;;51.80;25.57;;;2.60;99.90;;;;;;6199587;23;20527;-91
2021/11/26 10:25:09;;;;;;;53.70;24.33;;;2.70;99.90;;;;;;6198438;23;20389;-90
2021/11/26 10:27:56;;;;;;;55.80;26.40;;;2.60;99.90;;;;;;6173225;23;20483;-92
2021/11/26 10:30:35;;;;;;;51.27;24.90;;;2.70;99.90;;;;;;6200151;23;20449;-92
2021/11/26 10:33:05;;;;;;;47.70;22.83;;;2.60;99.90;;;;;;6201863;23;20394;-92
2021/11/26 10:35:43;;;;;;;46.20;21.70;;;2.50;99.90;;;;;;6200781;23;20397;-92
2021/11/26 10:38:16;;;;;;;50.40;22.80;;;2.50;99.90;;;;;;6202624;23;20426;-92
2021/11/26 10:43:37;;;;;;;38.50;21.57;;;2.50;99.90;;;;;;6203451;23;20394;-89
2021/11/26 10:59:35;;;;;;;47.43;23.77;;;2.60;99.90;;;;;;6215874;23;20389;-93
2021/11/26 11:02:03;;;;;;;41.23;21.40;;;2.70;99.90;;;;;;6199280;23;20477;-94
2021/11/26 11:04:31;;;;;;;48.63;22.43;;;2.80;99.90;;;;;;6201328;23;20176;-95
2021/11/26 11:07:00;;;;;;;41.70;22.77;;;2.70;99.90;;;;;;6203063;23;20467;-94
2021/11/26 11:09:37;;;;;;;41.00;21.30;;;2.60;99.90;;;;;;6202271;23;20433;-95
2021/11/26 11:12:03;;;;;;;45.70;20.63;;;2.60;99.90;;;;;;6205107;23;20398;-94
2021/11/26 11:14:29;;;;;;;37.93;19.53;;;2.80;99.90;;;;;;6208284;23;20706;-94
2021/11/26 11:16:56;;;;;;;42.07;20.60;;;2.80;99.90;;;;;;6210217;23;20413;-94
2021/11/26 11:19:24;;;;;;;39.43;20.40;;;2.70;99.90;;;;;;6203622;23;20226;-93
2021/11/26 11:21:51;;;;;;;42.00;20.53;;;2.90;99.90;;;;;;6203942;23;20442;-95
2021/11/26 11:24:17;;;;;;;38.83;20.40;;;2.70;99.90;;;;;;6203647;23;20468;-95
2021/11/26 11:26:46;;;;;;;37.43;19.40;;;2.70;99.90;;;;;;6203354;23;20595;-92
2021/11/26 11:29:18;;;;;;;44.50;20.77;;;2.70;99.90;;;;;;6200330;23;20812;-93
2021/11/26 11:31:45;;;;;;;40.33;20.30;;;2.80;99.90;;;;;;6199729;23;20413;-93
2021/11/26 11:34:16;;;;;;;38.37;19.87;;;2.90;99.90;;;;;;6199217;23;20929;-92
2021/11/26 11:36:43;;;;;;;41.97;20.03;;;3.00;99.90;;;;;;6197522;23;20414;-91
2021/11/26 11:39:11;;;;;;;36.87;20.23;;;3.00;99.90;;;;;;6201138;23;21006;-93
2021/11/26 11:41:48;;;;;;;42.50;20.77;;;2.90;99.90;;;;;;6199883;23;20406;-93
2021/11/26 11:44:29;;;;;;;42.90;20.37;;;2.90;99.90;;;;;;6172641;23;20411;-91
2021/11/26 11:46:57;;;;;;;40.43;20.13;;;2.90;99.90;;;;;;6196224;23;20403;-88
2021/11/26 11:49:31;;;;;;;41.40;20.07;;;2.90;99.90;;;;;;6191131;23;20462;-87
2021/11/26 11:52:04;;;;;;;39.60;18.93;;;2.80;99.90;;;;;;6196246;23;20435;-88
2021/11/26 11:54:50;;;;;;;40.00;20.50;;;2.90;99.90;;;;;;6194834;23;20412;-88
2021/11/26 11:57:24;;;;;;;41.53;20.43;;;2.80;99.90;;;;;;6192808;23;20405;-88
2021/11/26 11:59:51;;;;;;;44.13;20.30;;;2.90;99.90;;;;;;6198154;23;20401;-93
2021/11/26 12:02:29;;;;;;;34.27;19.10;;;2.90;99.90;;;;;;6172145;23;20408;-89
2021/11/26 12:04:55;;;;;;;35.53;18.73;;;3.00;99.90;;;;;;6195595;23;20405;-89
2021/11/26 12:07:29;;;;;;;41.50;21.23;;;3.00;99.90;;;;;;6197059;23;20394;-93
2021/11/26 12:10:13;;;;;;;38.17;21.00;;;2.90;99.90;;;;;;6198542;23;20433;-91
2021/11/26 12:12:50;;;;;;;36.47;20.20;;;3.00;99.90;;;;;;6197271;23;20402;-93
2021/11/26 12:15:28;;;;;;;40.57;19.27;;;3.00;99.90;;;;;;6209842;23;20399;-92
2021/11/26 12:18:01;;;;;;;35.00;17.87;;;3.00;99.90;;;;;;6212013;23;20399;-92
2021/11/26 12:20:28;;;;;;;38.30;18.10;;;3.00;99.90;;;;;;6199323;23;20402;-90
2021/11/26 12:23:06;;;;;;;34.23;19.10;;;3.00;99.90;;;;;;6198300;23;20751;-92
2021/11/26 12:25:59;;;;;;;37.33;19.57;;;3.00;99.90;;;;;;6173711;23;20465;-92
2021/11/26 12:28:35;;;;;;;35.90;18.60;;;3.00;99.90;;;;;;6199485;23;20402;-91
2021/11/26 12:31:06;;;;;;;35.77;19.37;;;3.00;99.90;;;;;;6192233;23;20444;-90
2021/11/26 12:33:32;;;;;;;34.77;17.73;;;3.00;99.90;;;;;;6196165;23;20399;-90
2021/11/26 12:36:09;;;;;;;37.80;20.20;;;2.90;99.90;;;;;;6198073;23;20430;-92
2021/11/26 12:38:53;;;;;;;33.90;19.20;;;2.90;99.90;;;;;;6198392;23;20394;-91
2021/11/26 12:41:35;;;;;;;34.20;18.17;;;2.90;99.90;;;;;;6170597;23;20708;-91
2021/11/26 12:44:02;;;;;;;32.37;19.10;;;3.00;99.90;;;;;;6197215;23;20480;-91
2021/11/26 12:46:34;;;;;;;37.77;20.80;;;3.00;99.90;;;;;;6196910;23;20399;-93
2021/11/26 12:49:15;;;;;;;38.53;20.17;;;3.00;99.90;;;;;;6200817;23;20456;-92
2021/11/26 12:51:44;;;;;;;41.40;20.07;;;3.10;99.90;;;;;;6201676;23;20413;-96
2021/11/26 12:54:32;;;;;;;46.60;23.60;;;3.10;99.90;;;;;;6203515;23;20403;-94
2021/11/26 12:57:10;;;;;;;39.50;20.20;;;3.10;99.90;;;;;;6176637;23;20394;-92
2021/11/26 12:59:50;;;;;;;32.70;19.20;;;3.10;99.90;;;;;;6173209;23;20464;-92
2021/11/26 13:02:27;;;;;;;36.33;19.70;;;3.00;99.90;;;;;;6197716;23;20402;-93
2021/11/26 13:04:55;;;;;;;34.30;17.87;;;3.00;99.90;;;;;;6173578;23;20407;-93
2021/11/26 13:07:23;;;;;;;40.97;21.60;;;3.10;99.90;;;;;;6200423;23;20422;-94
2021/11/26 13:10:01;;;;;;;39.90;21.20;;;3.10;99.90;;;;;;6201875;23;20468;-93
2021/11/26 13:12:34;;;;;;;36.27;17.70;;;3.20;99.90;;;;;;6197741;23;20605;-92
2021/11/26 13:15:03;;;;;;;36.77;18.67;;;3.20;99.90;;;;;;6201056;23;20387;-93
2021/11/26 13:17:39;;;;;;;38.03;19.37;;;3.20;99.90;;;;;;6199813;23;20437;-92
2021/11/26 13:20:18;;;;;;;41.00;21.20;;;3.20;99.90;;;;;;6202752;23;20911;-95
2021/11/26 13:23:02;;;;;;;36.20;19.93;;;3.20;99.90;;;;;;6202928;23;20514;-92
2021/11/26 13:25:37;;;;;;;39.17;19.70;;;3.30;99.90;;;;;;6197518;23;20395;-86
2021/11/26 13:28:17;;;;;;;35.97;19.00;;;3.20;99.90;;;;;;6199354;23;20692;-91
2021/11/26 13:30:45;;;;;;;43.07;20.97;;;3.20;99.90;;;;;;6195800;23;20476;-91
2021/11/26 13:33:20;;;;;;;33.83;18.93;;;3.30;99.90;;;;;;6198460;23;20399;-92
2021/11/26 13:35:49;;;;;;;41.90;20.83;;;3.20;99.90;;;;;;6195716;23;20387;-93
2021/11/26 13:38:25;;;;;;;40.73;18.93;;;3.30;99.90;;;;;;6194321;23;20865;-92
2021/11/26 13:41:14;;;;;;;44.77;18.97;;;3.40;99.90;;;;;;6196003;23;20501;-91